Terminal Aerodrome Forecast
Issued by NWS

Home | Current Version | Previous Version | Text Only | Print | Product List | Glossary On
Versions: 1 2 3 4 5 6 7 8 9 10 11 12
000
FTUS44 KBMX 292300
TAFTCL
TAF
KTCL 292337Z 3000/3024 18007KT P6SM BKN250
     FM300100 00000KT 6SM BR BKN250
     FM301500 17010KT P6SM VCTS SCT050CB BKN100=

USA.gov is the U.S. government's official web portal to all federal, state and local government web resources and services.